createdAt,value
2023-05-06T00:01:02.397Z,23.73
2023-05-06T00:03:06.998Z,30.85
2023-05-06T00:05:11.832Z,33.50
2023-05-06T00:07:16.981Z,26.45
2023-05-06T00:09:21.382Z,17.60
2023-05-06T00:11:26.449Z,32.92
2023-05-06T00:13:27.900Z,22.15
2023-05-06T00:17:33.952Z,17.80
2023-05-06T00:19:38.754Z,20.83
2023-05-06T00:21:40.245Z,23.33
2023-05-06T00:24:00.160Z,27.70
2023-05-06T00:26:01.644Z,23.92
2023-05-06T00:30:25.921Z,19.55
2023-05-06T00:32:27.418Z,15.23
2023-05-06T00:34:28.927Z,16.10
2023-05-06T00:36:31.634Z,16.33
2023-05-06T00:38:33.103Z,20.35
2023-05-06T00:40:34.558Z,15.05
2023-05-06T00:44:42.935Z,19.20
2023-05-06T00:46:47.326Z,28.20
2023-05-06T00:48:48.842Z,14.60
2023-05-06T00:52:54.729Z,23.42
2023-05-06T00:54:59.104Z,12.35
2023-05-06T00:57:01.374Z,20.73
2023-05-06T00:59:05.696Z,18.42
2023-05-06T01:01:08.341Z,13.90
2023-05-06T01:03:13.185Z,20.20
2023-05-06T01:05:18.195Z,17.02
2023-05-06T01:07:22.454Z,16.02
2023-05-06T01:09:39.307Z,14.15
2023-05-06T01:12:06.356Z,12.20
2023-05-06T01:14:14.142Z,13.98
2023-05-06T01:16:18.156Z,12.82
2023-05-06T01:18:25.551Z,14.32
2023-05-06T01:20:30.856Z,19.77
2023-05-06T01:22:34.221Z,16.48
2023-05-06T01:24:39.633Z,17.58
2023-05-06T01:26:42.950Z,21.08
2023-05-06T01:28:44.446Z,17.63
2023-05-06T01:30:45.935Z,24.92
2023-05-06T01:37:14.385Z,24.75
2023-05-06T01:39:24.582Z,17.23
2023-05-06T01:41:27.322Z,25.27
2023-05-06T01:43:34.870Z,22.45
2023-05-06T01:45:36.802Z,23.83
2023-05-06T01:47:38.380Z,25.95
2023-05-06T01:49:42.904Z,22.27
2023-05-06T01:51:47.919Z,17.98
2023-05-06T01:53:53.755Z,23.38
2023-05-06T01:55:55.705Z,17.35
2023-05-06T01:57:59.978Z,23.42
2023-05-06T02:00:02.537Z,23.77
2023-05-06T02:02:07.054Z,16.85
2023-05-06T02:04:08.744Z,33.65
2023-05-06T02:06:10.771Z,16.83
2023-05-06T02:08:16.816Z,18.48
2023-05-06T02:10:22.774Z,22.20
2023-05-06T02:12:44.127Z,27.35
2023-05-06T02:14:47.626Z,22.52
2023-05-06T02:16:51.430Z,29.65
2023-05-06T02:18:55.562Z,29.25
2023-05-06T02:21:02.089Z,26.25
2023-05-06T02:23:07.463Z,17.85
2023-05-06T02:25:09.558Z,36.60
2023-05-06T02:27:11.183Z,26.10
2023-05-06T02:29:12.640Z,29.42
2023-05-06T02:31:17.463Z,28.50
2023-05-06T02:33:22.035Z,19.52
2023-05-06T02:35:26.794Z,18.67
2023-05-06T02:37:29.867Z,19.45
2023-05-06T02:39:32.757Z,23.15
2023-05-06T02:41:37.906Z,31.13
2023-05-06T02:43:42.368Z,20.10
2023-05-06T02:45:46.735Z,23.80
2023-05-06T02:47:48.304Z,21.23
2023-05-06T02:51:53.634Z,25.00
2023-05-06T02:53:57.739Z,34.22
2023-05-06T02:55:59.360Z,29.27
2023-05-06T02:58:19.313Z,34.85
2023-05-06T03:00:23.588Z,27.38
2023-05-06T03:02:26.763Z,26.05
2023-05-06T03:04:28.956Z,24.23
2023-05-06T03:06:31.596Z,29.05
2023-05-06T03:08:35.648Z,25.85
2023-05-06T03:10:41.786Z,23.92
2023-05-06T03:13:03.281Z,34.10
2023-05-06T03:15:08.444Z,25.75
2023-05-06T03:17:14.211Z,24.75
2023-05-06T03:19:17.589Z,31.63
2023-05-06T03:21:19.434Z,20.92
2023-05-06T03:23:24.586Z,34.45
2023-05-06T03:25:26.150Z,29.25
2023-05-06T03:27:46.009Z,20.80
2023-05-06T03:30:06.487Z,28.27
2023-05-06T03:32:10.533Z,23.40
2023-05-06T03:34:13.037Z,33.00
2023-05-06T03:36:17.517Z,30.48
2023-05-06T03:38:26.517Z,32.70
2023-05-06T03:40:30.184Z,25.85
2023-05-06T03:42:50.279Z,30.75
2023-05-06T03:45:12.263Z,32.08
2023-05-06T03:47:17.289Z,25.90
2023-05-06T03:49:20.583Z,29.55
2023-05-06T03:51:25.164Z,30.48
2023-05-06T03:53:30.145Z,22.50
2023-05-06T03:55:31.973Z,22.00
2023-05-06T03:57:36.366Z,25.35
2023-05-06T03:59:40.606Z,31.88
2023-05-06T04:03:50.135Z,21.70
2023-05-06T04:05:52.280Z,26.00
2023-05-06T04:07:55.230Z,29.67
2023-05-06T04:09:58.196Z,25.23
2023-05-06T04:12:00.509Z,24.60
2023-05-06T04:14:02.651Z,21.33
2023-05-06T04:16:08.264Z,22.70
2023-05-06T04:18:11.317Z,23.02
2023-05-06T04:20:15.339Z,29.00
2023-05-06T04:22:18.993Z,22.17
2023-05-06T04:24:24.299Z,26.35
2023-05-06T04:26:30.779Z,30.45
2023-05-06T04:28:52.897Z,28.58
2023-05-06T04:31:14.589Z,21.85
2023-05-06T04:33:35.746Z,31.25
2023-05-06T04:35:37.500Z,25.85
2023-05-06T04:37:40.127Z,27.20
2023-05-06T04:39:47.504Z,20.98
2023-05-06T04:41:51.740Z,22.17
2023-05-06T04:43:53.180Z,26.67
2023-05-06T04:45:58.041Z,24.05
2023-05-06T04:48:00.220Z,27.27
2023-05-06T04:50:08.718Z,24.23
2023-05-06T04:52:10.269Z,17.50
2023-05-06T04:54:13.330Z,28.27
2023-05-06T04:56:15.541Z,25.92
2023-05-06T04:58:19.620Z,30.55
2023-05-06T05:00:22.288Z,25.73
2023-05-06T05:02:26.582Z,25.35
2023-05-06T05:04:46.720Z,24.20
2023-05-06T05:07:07.561Z,24.90
2023-05-06T05:09:10.662Z,25.27
2023-05-06T05:11:15.285Z,28.98
2023-05-06T05:13:19.551Z,39.60
2023-05-06T05:15:21.362Z,28.60
2023-05-06T05:17:22.986Z,24.00
2023-05-06T05:19:42.912Z,28.02
2023-05-06T05:21:44.656Z,33.85
2023-05-06T05:23:48.987Z,24.98
2023-05-06T05:25:53.383Z,37.45
2023-05-06T05:27:54.972Z,30.63
2023-05-06T05:29:56.775Z,33.40
2023-05-06T05:32:01.043Z,30.40
2023-05-06T05:34:02.778Z,29.30
2023-05-06T05:36:04.742Z,26.15
2023-05-06T05:38:06.265Z,25.13
2023-05-06T05:40:10.684Z,20.98
2023-05-06T05:42:12.212Z,26.80
2023-05-06T05:44:13.682Z,23.52
2023-05-06T05:46:33.702Z,22.55
2023-05-06T05:48:35.285Z,15.95
2023-05-06T05:50:39.355Z,19.73
2023-05-06T05:52:59.445Z,24.90
2023-05-06T05:55:00.904Z,30.13
2023-05-06T05:57:02.481Z,33.38
2023-05-06T05:59:03.996Z,30.73
2023-05-06T06:01:08.333Z,19.92
2023-05-06T06:03:12.996Z,27.60
2023-05-06T06:05:14.555Z,21.60
2023-05-06T06:07:18.895Z,22.55
2023-05-06T06:09:23.188Z,24.00
2023-05-06T06:11:28.507Z,25.83
2023-05-06T06:13:48.634Z,24.63
2023-05-06T06:15:50.411Z,28.02
2023-05-06T06:17:55.100Z,19.55
2023-05-06T06:19:58.295Z,24.25
2023-05-06T06:21:59.890Z,28.17
2023-05-06T06:24:20.064Z,17.50
2023-05-06T06:26:24.152Z,22.48
2023-05-06T06:28:28.540Z,26.73
2023-05-06T06:30:33.104Z,26.85
2023-05-06T06:32:34.797Z,22.00
2023-05-06T06:34:36.466Z,27.92
2023-05-06T06:36:45.109Z,25.08
2023-05-06T06:38:49.358Z,28.27
2023-05-06T06:41:09.381Z,31.35
2023-05-06T06:43:10.887Z,20.00
2023-05-06T06:45:15.544Z,27.00
2023-05-06T06:47:19.585Z,25.13
2023-05-06T06:49:21.026Z,23.77
2023-05-06T06:51:25.743Z,22.50
2023-05-06T06:53:30.087Z,25.02
2023-05-06T06:55:50.295Z,18.63
2023-05-06T06:57:54.359Z,20.05
2023-05-06T07:00:14.746Z,28.73
2023-05-06T07:02:22.020Z,24.85
2023-05-06T07:04:42.297Z,27.27
2023-05-06T07:06:43.844Z,32.65
2023-05-06T07:08:45.288Z,24.33
2023-05-06T07:10:49.565Z,17.35
2023-05-06T07:12:51.018Z,22.95
2023-05-06T07:14:52.514Z,24.02
2023-05-06T07:16:56.926Z,24.70
2023-05-06T07:19:01.429Z,19.52
2023-05-06T07:21:02.870Z,21.48
2023-05-06T07:23:04.428Z,23.23
2023-05-06T07:25:09.153Z,20.17
2023-05-06T07:27:30.831Z,32.88
2023-05-06T07:29:32.477Z,22.58
2023-05-06T07:31:34.135Z,24.25
2023-05-06T07:33:35.811Z,20.52
2023-05-06T07:35:37.557Z,27.42
2023-05-06T07:37:41.634Z,25.80
2023-05-06T07:39:43.212Z,15.73
2023-05-06T07:41:47.230Z,25.58
2023-05-06T07:43:51.657Z,19.60
2023-05-06T07:46:11.837Z,19.83
2023-05-06T07:48:13.501Z,16.80
2023-05-06T07:50:15.103Z,24.60
2023-05-06T07:52:19.571Z,19.75
2023-05-06T07:54:21.072Z,11.90
2023-05-06T07:56:22.538Z,13.48
2023-05-06T07:58:28.408Z,16.27
2023-05-06T08:00:29.994Z,14.77
2023-05-06T08:02:32.196Z,15.15
2023-05-06T08:04:36.980Z,17.30
2023-05-06T08:06:38.602Z,9.10
2023-05-06T08:08:44.942Z,11.23
2023-05-06T08:10:51.429Z,7.35
2023-05-06T08:13:01.871Z,7.95
2023-05-06T08:15:19.953Z,9.20
2023-05-06T08:17:48.590Z,9.27
2023-05-06T08:20:05.333Z,14.45
2023-05-06T08:22:20.436Z,8.63
2023-05-06T08:24:38.466Z,5.45
2023-05-06T08:27:00.723Z,11.23
2023-05-06T08:29:19.220Z,6.28
2023-05-06T08:31:50.311Z,9.48
2023-05-06T08:34:05.128Z,8.55
2023-05-06T08:36:17.471Z,13.55
2023-05-06T08:38:31.097Z,6.00
2023-05-06T08:40:56.563Z,8.82
2023-05-06T08:43:09.759Z,10.85
2023-05-06T08:45:12.949Z,12.38
2023-05-06T08:47:17.616Z,9.80
2023-05-06T08:49:22.120Z,8.07
2023-05-06T08:51:28.202Z,10.63
2023-05-06T08:53:33.314Z,8.70
2023-05-06T08:55:38.481Z,8.02
2023-05-06T08:57:42.782Z,8.07
2023-05-06T08:59:45.066Z,11.07
2023-05-06T09:01:46.580Z,8.95
2023-05-06T09:03:48.057Z,9.50
2023-05-06T09:05:52.010Z,7.10
2023-05-06T09:07:53.444Z,15.25
2023-05-06T09:09:55.186Z,13.43
2023-05-06T09:12:02.194Z,7.13
2023-05-06T09:14:22.145Z,8.32
2023-05-06T09:16:30.226Z,7.25
2023-05-06T09:18:37.262Z,8.80
2023-05-06T09:20:44.800Z,6.20
2023-05-06T09:22:46.288Z,5.38
2023-05-06T09:24:57.151Z,6.82
2023-05-06T09:27:01.769Z,7.22
2023-05-06T09:29:06.344Z,6.38
2023-05-06T09:31:26.617Z,7.63
2023-05-06T09:33:30.775Z,8.68
2023-05-06T09:35:42.741Z,7.10
2023-05-06T09:37:47.297Z,10.90
2023-05-06T09:40:09.333Z,5.57
2023-05-06T09:42:11.338Z,9.38
2023-05-06T09:44:15.812Z,6.45
2023-05-06T09:46:23.438Z,7.50
2023-05-06T09:48:28.570Z,7.72
2023-05-06T09:50:33.400Z,7.75
2023-05-06T09:52:37.980Z,7.65
2023-05-06T09:54:42.591Z,7.13
2023-05-06T09:56:44.254Z,6.85
2023-05-06T09:58:50.032Z,6.43
2023-05-06T10:00:54.710Z,4.90
2023-05-06T10:02:57.015Z,6.65
2023-05-06T10:04:59.541Z,19.67
2023-05-06T10:07:04.423Z,7.63
2023-05-06T10:09:09.378Z,8.00
2023-05-06T10:11:11.348Z,14.95
2023-05-06T10:13:22.643Z,11.75
2023-05-06T10:15:24.943Z,9.23
2023-05-06T10:17:31.214Z,11.85
2023-05-06T10:19:37.620Z,4.95
2023-05-06T10:22:02.489Z,7.65
2023-05-06T10:24:29.528Z,14.95
2023-05-06T10:26:31.669Z,6.28
2023-05-06T10:28:36.098Z,8.23
2023-05-06T10:30:41.135Z,9.30
2023-05-06T10:32:43.404Z,12.82
2023-05-06T10:34:47.496Z,5.97
2023-05-06T10:38:57.126Z,9.05
2023-05-06T10:40:59.175Z,13.32
2023-05-06T10:43:21.632Z,35.33
2023-05-06T10:45:28.937Z,7.38
2023-05-06T10:47:49.530Z,10.52
2023-05-06T10:50:10.598Z,4.95
2023-05-06T10:52:13.179Z,14.63
2023-05-06T10:54:20.175Z,10.25
2023-05-06T10:57:00.205Z,11.13
2023-05-06T10:59:10.489Z,7.10
2023-05-06T11:01:14.155Z,12.93
2023-05-06T11:03:18.733Z,11.10
2023-05-06T11:05:23.883Z,15.90
2023-05-06T11:07:28.001Z,12.73
2023-05-06T11:09:29.470Z,10.70
2023-05-06T11:11:48.865Z,10.27
2023-05-06T11:13:52.456Z,12.23
2023-05-06T11:15:59.531Z,21.98
2023-05-06T11:18:23.697Z,14.13
2023-05-06T11:20:27.919Z,11.57
2023-05-06T11:22:42.162Z,19.95
2023-05-06T11:24:45.972Z,23.83
2023-05-06T11:26:52.554Z,23.65
2023-05-06T11:29:03.385Z,24.42
2023-05-06T11:31:07.145Z,20.63
2023-05-06T11:33:15.515Z,22.73
2023-05-06T11:35:24.012Z,34.28
2023-05-06T11:37:28.473Z,25.90
2023-05-06T11:39:40.584Z,22.98
2023-05-06T11:42:07.918Z,20.77
2023-05-06T11:44:13.870Z,26.73
2023-05-06T11:46:19.111Z,30.17
2023-05-06T11:48:20.728Z,37.90
2023-05-06T11:50:25.022Z,37.10
2023-05-06T11:52:26.594Z,31.75
2023-05-06T11:54:28.205Z,37.78
2023-05-06T11:56:29.930Z,35.85
2023-05-06T11:58:34.037Z,30.48
2023-05-06T12:00:35.564Z,39.60
2023-05-06T12:02:40.995Z,34.85
2023-05-06T12:04:46.372Z,32.22
2023-05-06T12:06:47.883Z,36.70
2023-05-06T12:08:49.446Z,35.40
2023-05-06T12:10:59.351Z,44.30
2023-05-06T12:13:20.088Z,33.20
2023-05-06T12:15:21.622Z,36.72
2023-05-06T12:17:23.198Z,22.23
2023-05-06T12:19:28.494Z,38.20
2023-05-06T12:21:33.105Z,31.80
2023-05-06T12:23:34.615Z,42.40
2023-05-06T12:25:39.886Z,18.55
2023-05-06T12:27:44.302Z,35.35
2023-05-06T12:29:52.329Z,29.20
2023-05-06T12:32:07.580Z,29.35
2023-05-06T12:34:35.907Z,25.35
2023-05-06T12:36:44.296Z,32.95
2023-05-06T12:38:58.928Z,33.15
2023-05-06T12:41:04.419Z,32.05
2023-05-06T12:43:06.221Z,32.80
2023-05-06T12:45:15.111Z,25.60
2023-05-06T12:47:23.923Z,40.30
2023-05-06T12:49:25.858Z,41.55
2023-05-06T12:51:27.765Z,39.97
2023-05-06T12:53:47.991Z,33.42
2023-05-06T12:55:49.449Z,42.10
2023-05-06T12:57:52.132Z,37.20
2023-05-06T12:59:56.606Z,41.05
2023-05-06T13:02:01.272Z,42.58
2023-05-06T13:04:05.589Z,34.53
2023-05-06T13:06:07.233Z,34.20
2023-05-06T13:08:11.728Z,32.60
2023-05-06T13:10:19.158Z,38.95
2023-05-06T13:12:39.260Z,23.42
2023-05-06T13:14:43.408Z,40.33
2023-05-06T13:16:48.502Z,31.45
2023-05-06T13:18:52.785Z,33.53
2023-05-06T13:20:57.045Z,38.55
2023-05-06T13:22:58.521Z,22.45
2023-05-06T13:25:18.393Z,24.83
2023-05-06T13:29:26.789Z,28.50
2023-05-06T13:31:28.865Z,34.65
2023-05-06T13:33:34.232Z,34.05
2023-05-06T13:35:54.534Z,37.83
2023-05-06T13:37:58.882Z,40.45
2023-05-06T13:40:00.464Z,30.42
2023-05-06T13:42:07.427Z,36.50
2023-05-06T13:44:10.392Z,37.25
2023-05-06T13:46:12.021Z,28.30
2023-05-06T13:48:14.120Z,26.05
2023-05-06T13:50:18.394Z,38.63
2023-05-06T13:52:22.684Z,26.02
2023-05-06T13:54:24.464Z,29.98
2023-05-06T13:56:25.983Z,27.88
2023-05-06T13:58:31.065Z,31.88
2023-05-06T14:00:51.149Z,21.88
2023-05-06T14:02:52.734Z,26.38
2023-05-06T14:04:55.192Z,17.83
2023-05-06T14:06:59.472Z,15.95
2023-05-06T14:09:00.912Z,14.35
2023-05-06T14:11:21.215Z,19.88
2023-05-06T14:13:22.765Z,21.00
2023-05-06T14:15:27.170Z,15.52
2023-05-06T14:17:28.725Z,23.83
2023-05-06T14:19:30.224Z,17.00
2023-05-06T14:21:36.414Z,13.23
2023-05-06T14:23:45.193Z,18.23
2023-05-06T14:26:05.540Z,23.05
2023-05-06T14:28:13.443Z,21.83
2023-05-06T14:30:34.441Z,19.95
2023-05-06T14:32:36.341Z,15.45
2023-05-06T14:34:38.021Z,26.45
2023-05-06T14:36:42.928Z,24.35
2023-05-06T14:38:44.432Z,25.52
2023-05-06T14:40:46.213Z,27.38
2023-05-06T14:42:49.581Z,34.10
2023-05-06T14:45:10.264Z,24.55
2023-05-06T14:47:15.004Z,25.58
2023-05-06T14:49:16.533Z,32.78
2023-05-06T14:51:36.321Z,52.47
2023-05-06T14:53:37.800Z,37.58
2023-05-06T14:55:40.832Z,34.47
2023-05-06T14:57:42.285Z,40.63
2023-05-06T14:59:46.681Z,39.13
2023-05-06T15:01:48.439Z,40.40
2023-05-06T15:03:51.254Z,35.97
2023-05-06T15:05:52.783Z,37.60
2023-05-06T15:07:54.435Z,39.20
2023-05-06T15:09:56.878Z,42.22
2023-05-06T15:11:58.551Z,43.83
2023-05-06T15:14:00.316Z,38.30
2023-05-06T15:16:20.950Z,40.85
2023-05-06T15:18:42.087Z,48.03
2023-05-06T15:20:46.309Z,34.92
2023-05-06T15:22:50.636Z,35.63
2023-05-06T15:24:52.207Z,37.17
2023-05-06T15:26:57.224Z,41.38
2023-05-06T15:28:58.779Z,44.58
2023-05-06T15:31:03.756Z,42.28
2023-05-06T15:33:23.591Z,33.72
2023-05-06T15:35:25.184Z,48.83
2023-05-06T15:37:29.262Z,38.17
2023-05-06T15:39:39.522Z,44.22
2023-05-06T15:41:41.081Z,51.03
2023-05-06T15:43:42.543Z,40.50
2023-05-06T15:45:46.772Z,48.00
2023-05-06T15:47:51.125Z,41.25
2023-05-06T15:49:54.834Z,53.58
2023-05-06T15:52:01.283Z,49.53
2023-05-06T15:54:06.515Z,52.75
2023-05-06T15:56:18.124Z,42.78
2023-05-06T15:58:23.796Z,53.88
2023-05-06T16:00:29.374Z,49.63
2023-05-06T16:02:33.920Z,41.20
2023-05-06T16:04:35.775Z,35.45
2023-05-06T16:06:40.085Z,39.47
2023-05-06T16:08:44.382Z,41.78
2023-05-06T16:10:48.811Z,52.28
2023-05-06T16:12:53.911Z,47.88
2023-05-06T16:15:14.166Z,40.13
2023-05-06T16:17:15.850Z,45.55
2023-05-06T16:19:19.842Z,36.80
2023-05-06T16:21:21.608Z,37.25
2023-05-06T16:23:26.248Z,41.58
2023-05-06T16:25:29.576Z,43.33
2023-05-06T16:27:31.378Z,38.05
2023-05-06T16:29:51.415Z,40.63
2023-05-06T16:33:59.804Z,49.50
2023-05-06T16:36:04.487Z,39.70
2023-05-06T16:38:25.742Z,50.10
2023-05-06T16:40:31.130Z,37.42
2023-05-06T16:42:35.764Z,39.00
2023-05-06T16:44:37.627Z,38.85
2023-05-06T16:46:44.037Z,29.50
2023-05-06T16:48:48.736Z,35.45
2023-05-06T16:50:53.436Z,43.58
2023-05-06T16:52:55.025Z,32.78
2023-05-06T16:54:59.641Z,31.98
2023-05-06T16:57:01.588Z,27.15
2023-05-06T16:59:03.204Z,34.17
2023-05-06T17:01:08.122Z,29.80
2023-05-06T17:03:10.039Z,27.48
2023-05-06T17:05:11.808Z,27.65
2023-05-06T17:07:13.221Z,25.00
2023-05-06T17:09:15.579Z,20.38
2023-05-06T17:11:17.163Z,25.73
2023-05-06T17:13:18.852Z,17.65
2023-05-06T17:15:23.490Z,19.17
2023-05-06T17:17:28.819Z,16.27
2023-05-06T17:19:33.530Z,13.73
2023-05-06T17:21:37.081Z,12.52
2023-05-06T17:23:39.277Z,18.92
2023-05-06T17:25:40.820Z,12.32
2023-05-06T17:27:45.083Z,15.18
2023-05-06T17:29:47.628Z,14.15
2023-05-06T17:31:51.217Z,17.35
2023-05-06T17:34:11.217Z,14.60
2023-05-06T17:36:15.012Z,17.98
2023-05-06T17:38:16.992Z,9.48
2023-05-06T17:40:21.099Z,9.95
2023-05-06T17:42:22.672Z,7.85
2023-05-06T17:44:27.062Z,9.25
2023-05-06T17:46:28.674Z,10.88
2023-05-06T17:48:32.847Z,8.95
2023-05-06T17:50:34.292Z,9.60
2023-05-06T17:52:35.754Z,13.38
2023-05-06T17:54:38.094Z,10.02
2023-05-06T17:56:39.549Z,8.98
2023-05-06T17:58:43.746Z,7.38
2023-05-06T18:00:45.446Z,11.48
2023-05-06T18:02:47.469Z,8.15
2023-05-06T18:04:49.021Z,7.50
2023-05-06T18:06:50.571Z,13.30
2023-05-06T18:08:54.900Z,9.02
2023-05-06T18:10:59.323Z,8.15
2023-05-06T18:13:03.872Z,6.20
2023-05-06T18:15:09.075Z,5.22
2023-05-06T18:17:13.850Z,3.85
2023-05-06T18:19:18.352Z,5.63
2023-05-06T18:21:23.130Z,7.30
2023-05-06T18:23:29.983Z,7.93
2023-05-06T18:25:31.500Z,7.78
2023-05-06T18:27:38.054Z,6.38
2023-05-06T18:29:39.919Z,5.55
2023-05-06T18:31:44.136Z,6.68
2023-05-06T18:33:45.763Z,5.72
2023-05-06T18:35:49.245Z,5.10
2023-05-06T18:37:52.631Z,6.82
2023-05-06T18:39:59.467Z,8.63
2023-05-06T18:42:04.280Z,11.20
2023-05-06T18:44:05.988Z,6.75
2023-05-06T18:46:07.462Z,8.82
2023-05-06T18:48:12.485Z,10.82
2023-05-06T18:50:15.348Z,8.85
2023-05-06T18:52:17.820Z,10.20
2023-05-06T18:54:22.098Z,10.10
2023-05-06T18:56:23.697Z,10.32
2023-05-06T18:58:27.942Z,15.10
2023-05-06T19:00:32.913Z,9.07
2023-05-06T19:02:35.200Z,17.83
2023-05-06T19:04:56.446Z,12.95
2023-05-06T19:06:58.330Z,17.63
2023-05-06T19:09:18.692Z,12.88
2023-05-06T19:11:23.166Z,9.93
2023-05-06T19:13:24.705Z,13.68
2023-05-06T19:15:29.441Z,12.68
2023-05-06T19:19:34.824Z,13.90
2023-05-06T19:21:40.803Z,12.27
2023-05-06T19:23:44.304Z,11.10
2023-05-06T19:25:48.267Z,11.05
2023-05-06T19:27:53.591Z,10.18
2023-05-06T19:29:57.578Z,10.07
2023-05-06T19:32:03.252Z,9.15
2023-05-06T19:34:07.121Z,10.65
2023-05-06T19:36:13.698Z,7.63
2023-05-06T19:38:17.502Z,6.13
2023-05-06T19:40:21.420Z,9.20
2023-05-06T19:42:25.155Z,10.88
2023-05-06T19:44:49.018Z,10.90
2023-05-06T19:46:55.026Z,10.90
2023-05-06T19:48:59.236Z,9.43
2023-05-06T19:51:03.918Z,11.10
2023-05-06T19:53:08.116Z,6.90
2023-05-06T19:55:12.858Z,8.10
2023-05-06T19:57:18.406Z,11.80
2023-05-06T19:59:19.914Z,7.05
2023-05-06T20:01:24.845Z,7.65
2023-05-06T20:03:26.491Z,7.38
2023-05-06T20:05:31.949Z,8.63
2023-05-06T20:07:37.523Z,8.82
2023-05-06T20:09:41.553Z,12.82
2023-05-06T20:11:43.218Z,10.43
2023-05-06T20:13:44.595Z,14.48
2023-05-06T20:15:46.292Z,13.18
2023-05-06T20:17:47.946Z,13.60
2023-05-06T20:19:49.738Z,14.48
2023-05-06T20:21:53.984Z,12.55
2023-05-06T20:23:57.989Z,20.38
2023-05-06T20:26:22.651Z,16.13
2023-05-06T20:28:26.879Z,12.48
2023-05-06T20:30:43.958Z,13.30
2023-05-06T20:32:53.849Z,13.70
2023-05-06T20:35:06.808Z,15.35
2023-05-06T20:37:22.290Z,16.10
2023-05-06T20:39:37.810Z,13.43
2023-05-06T20:41:51.696Z,16.70
2023-05-06T20:44:08.387Z,20.80
2023-05-06T20:46:25.741Z,16.08
2023-05-06T20:48:37.281Z,20.52
2023-05-06T20:50:52.471Z,19.98
2023-05-06T20:53:01.922Z,19.83
2023-05-06T20:55:11.729Z,15.98
2023-05-06T20:57:29.167Z,17.58
2023-05-06T20:59:42.342Z,17.88
2023-05-06T21:01:52.090Z,23.55
2023-05-06T21:03:58.834Z,24.00
2023-05-06T21:06:00.434Z,21.60
2023-05-06T21:08:01.860Z,22.35
2023-05-06T21:12:10.434Z,24.88
2023-05-06T21:14:12.375Z,27.80
2023-05-06T21:16:13.808Z,21.45
2023-05-06T21:18:18.481Z,26.23
2023-05-06T21:20:23.076Z,27.05
2023-05-06T21:22:27.368Z,21.90
2023-05-06T21:24:29.021Z,29.50
2023-05-06T21:26:30.809Z,31.83
2023-05-06T21:28:32.289Z,22.92
2023-05-06T21:32:38.053Z,26.40
2023-05-06T21:34:39.566Z,24.40
2023-05-06T21:36:42.273Z,25.95
2023-05-06T21:38:43.701Z,25.15
2023-05-06T21:40:45.141Z,26.67
2023-05-06T21:44:50.661Z,29.23
2023-05-06T21:46:55.216Z,31.60
2023-05-06T21:48:59.949Z,29.27
2023-05-06T21:51:04.655Z,27.75
2023-05-06T21:53:09.176Z,32.63
2023-05-06T21:55:11.423Z,31.67
2023-05-06T21:57:16.524Z,29.27
2023-05-06T21:59:20.728Z,28.27
2023-05-06T22:01:29.077Z,31.90
2023-05-06T22:03:30.709Z,31.23
2023-05-06T22:05:32.239Z,31.55
2023-05-06T22:07:33.835Z,31.92
2023-05-06T22:09:35.826Z,35.20
2023-05-06T22:11:38.308Z,41.35
2023-05-06T22:13:42.954Z,34.92
2023-05-06T22:15:47.283Z,38.60
2023-05-06T22:17:51.803Z,38.67
2023-05-06T22:19:54.497Z,34.72
2023-05-06T22:21:57.506Z,36.08
2023-05-06T22:23:58.969Z,39.33
2023-05-06T22:26:00.598Z,36.85
2023-05-06T22:28:02.337Z,32.90
2023-05-06T22:30:04.088Z,35.88
2023-05-06T22:32:05.993Z,38.65
2023-05-06T22:34:07.610Z,46.10
2023-05-06T22:38:13.058Z,52.03
2023-05-06T22:40:17.366Z,39.83
2023-05-06T22:42:22.052Z,36.17
2023-05-06T22:44:26.384Z,47.92
2023-05-06T22:46:30.852Z,38.90
2023-05-06T22:48:51.175Z,41.55
2023-05-06T22:50:56.383Z,43.63
2023-05-06T22:52:58.005Z,38.70
2023-05-06T22:54:59.561Z,36.72
2023-05-06T22:57:01.206Z,43.22
2023-05-06T22:59:02.742Z,39.97
2023-05-06T23:01:04.507Z,40.90
2023-05-06T23:03:09.611Z,38.05
2023-05-06T23:05:13.970Z,45.65
2023-05-06T23:07:18.441Z,43.13
2023-05-06T23:09:22.431Z,42.53
2023-05-06T23:11:23.928Z,59.63
2023-05-06T23:13:28.356Z,47.60
2023-05-06T23:15:29.883Z,39.97
2023-05-06T23:17:32.060Z,52.53
2023-05-06T23:19:36.388Z,52.80
2023-05-06T23:21:41.537Z,45.03
2023-05-06T23:23:49.161Z,47.85
2023-05-06T23:25:50.711Z,46.00
2023-05-06T23:27:52.178Z,48.88
2023-05-06T23:30:00.628Z,54.78
2023-05-06T23:32:03.923Z,52.28
2023-05-06T23:34:07.167Z,55.08
2023-05-06T23:36:08.812Z,62.55
2023-05-06T23:38:10.409Z,53.53
2023-05-06T23:40:13.951Z,60.15
2023-05-06T23:42:15.460Z,57.72
2023-05-06T23:44:19.957Z,57.05
2023-05-06T23:46:40.257Z,64.57
2023-05-06T23:48:46.708Z,60.15
2023-05-06T23:50:51.483Z,57.88
2023-05-06T23:52:56.791Z,64.15
2023-05-06T23:55:17.042Z,54.92
2023-05-06T23:57:21.762Z,60.85
2023-05-06T23:59:26.234Z,52.45
